sensor_id;sensor_type;location;lat;lon;timestamp;pressure;altitude;pressure_sealevel;temperature;humidity
43450;BME280;29041;42.266;23.110;2022-08-19T00:00:09;95544.50;;;27.89;41.68
43450;BME280;29041;42.266;23.110;2022-08-19T00:02:58;95543.22;;;27.38;43.20
43450;BME280;29041;42.266;23.110;2022-08-19T00:05:45;95543.44;;;27.02;44.36
43450;BME280;29041;42.266;23.110;2022-08-19T00:08:32;95537.38;;;26.94;44.60
43450;BME280;29041;42.266;23.110;2022-08-19T00:11:20;95535.31;;;26.82;45.37
43450;BME280;29041;42.266;23.110;2022-08-19T00:14:08;95540.88;;;26.65;45.87
43450;BME280;29041;42.266;23.110;2022-08-19T00:16:56;95555.31;;;26.53;45.95
43450;BME280;29041;42.266;23.110;2022-08-19T00:19:45;95559.44;;;26.44;45.55
43450;BME280;29041;42.266;23.110;2022-08-19T00:22:33;95561.34;;;26.31;45.65
43450;BME280;29041;42.266;23.110;2022-08-19T00:25:20;95546.97;;;26.40;45.73
43450;BME280;29041;42.266;23.110;2022-08-19T00:28:07;95536.59;;;25.98;47.32
43450;BME280;29041;42.266;23.110;2022-08-19T00:30:55;95549.41;;;26.38;46.27
43450;BME280;29041;42.266;23.110;2022-08-19T00:33:42;95542.72;;;26.39;45.95
43450;BME280;29041;42.266;23.110;2022-08-19T00:36:31;95550.59;;;26.99;44.52
43450;BME280;29041;42.266;23.110;2022-08-19T00:39:18;95559.97;;;26.39;45.59
43450;BME280;29041;42.266;23.110;2022-08-19T00:42:05;95553.97;;;26.11;46.63
43450;BME280;29041;42.266;23.110;2022-08-19T00:44:52;95539.16;;;25.89;47.38
43450;BME280;29041;42.266;23.110;2022-08-19T00:47:40;95555.50;;;25.59;48.02
43450;BME280;29041;42.266;23.110;2022-08-19T00:50:27;95545.03;;;26.40;46.20
43450;BME280;29041;42.266;23.110;2022-08-19T00:53:20;95546.47;;;26.28;46.35
43450;BME280;29041;42.266;23.110;2022-08-19T00:56:08;95545.75;;;25.91;47.01
43450;BME280;29041;42.266;23.110;2022-08-19T00:58:56;95535.03;;;25.97;46.67
43450;BME280;29041;42.266;23.110;2022-08-19T01:01:45;95552.25;;;25.81;46.99
43450;BME280;29041;42.266;23.110;2022-08-19T01:04:33;95551.25;;;25.55;47.02
43450;BME280;29041;42.266;23.110;2022-08-19T01:07:20;95543.00;;;25.38;47.91
43450;BME280;29041;42.266;23.110;2022-08-19T01:10:11;95536.72;;;25.74;47.30
43450;BME280;29041;42.266;23.110;2022-08-19T01:13:00;95528.25;;;25.48;47.69
43450;BME280;29041;42.266;23.110;2022-08-19T01:15:50;95532.97;;;25.28;48.37
43450;BME280;29041;42.266;23.110;2022-08-19T01:18:40;95520.31;;;25.71;46.74
43450;BME280;29041;42.266;23.110;2022-08-19T01:21:31;95525.25;;;25.43;47.31
43450;BME280;29041;42.266;23.110;2022-08-19T01:24:21;95521.19;;;26.01;45.83
43450;BME280;29041;42.266;23.110;2022-08-19T01:27:08;95524.13;;;25.00;48.17
43450;BME280;29041;42.266;23.110;2022-08-19T01:29:56;95525.56;;;25.45;47.29
43450;BME280;29041;42.266;23.110;2022-08-19T01:32:44;95542.09;;;25.61;47.02
43450;BME280;29041;42.266;23.110;2022-08-19T01:35:31;95543.03;;;25.55;47.01
43450;BME280;29041;42.266;23.110;2022-08-19T01:38:20;95550.69;;;26.33;45.62
43450;BME280;29041;42.266;23.110;2022-08-19T01:41:10;95556.06;;;25.50;48.34
43450;BME280;29041;42.266;23.110;2022-08-19T01:43:57;95559.38;;;25.01;49.29
43450;BME280;29041;42.266;23.110;2022-08-19T01:46:45;95552.81;;;25.35;48.21
43450;BME280;29041;42.266;23.110;2022-08-19T01:49:33;95556.13;;;25.67;47.09
43450;BME280;29041;42.266;23.110;2022-08-19T01:52:21;95558.91;;;26.00;46.20
43450;BME280;29041;42.266;23.110;2022-08-19T01:55:11;95557.47;;;25.59;47.47
43450;BME280;29041;42.266;23.110;2022-08-19T01:58:02;95564.69;;;25.53;47.80
43450;BME280;29041;42.266;23.110;2022-08-19T02:00:51;95552.78;;;26.12;46.20
43450;BME280;29041;42.266;23.110;2022-08-19T02:03:38;95548.63;;;26.37;45.43
43450;BME280;29041;42.266;23.110;2022-08-19T02:06:26;95550.56;;;25.30;48.13
43450;BME280;29041;42.266;23.110;2022-08-19T02:09:14;95549.81;;;25.50;47.29
43450;BME280;29041;42.266;23.110;2022-08-19T02:12:02;95549.78;;;25.87;46.58
43450;BME280;29041;42.266;23.110;2022-08-19T02:14:51;95542.94;;;25.95;46.59
43450;BME280;29041;42.266;23.110;2022-08-19T02:17:38;95538.38;;;26.05;46.01
43450;BME280;29041;42.266;23.110;2022-08-19T02:20:25;95536.00;;;26.23;45.98
43450;BME280;29041;42.266;23.110;2022-08-19T02:23:13;95536.22;;;26.62;45.00
43450;BME280;29041;42.266;23.110;2022-08-19T02:26:00;95538.13;;;25.46;47.42
43450;BME280;29041;42.266;23.110;2022-08-19T02:28:48;95541.97;;;25.48;48.00
43450;BME280;29041;42.266;23.110;2022-08-19T02:31:36;95541.72;;;25.43;48.04
43450;BME280;29041;42.266;23.110;2022-08-19T02:34:24;95543.59;;;25.99;46.72
43450;BME280;29041;42.266;23.110;2022-08-19T02:37:11;95537.66;;;26.21;46.31
43450;BME280;29041;42.266;23.110;2022-08-19T02:40:12;95533.31;;;25.30;48.14
43450;BME280;29041;42.266;23.110;2022-08-19T02:42:59;95540.63;;;25.37;47.93
43450;BME280;29041;42.266;23.110;2022-08-19T02:45:48;95538.97;;;25.02;48.73
43450;BME280;29041;42.266;23.110;2022-08-19T02:48:38;95545.28;;;24.99;49.26
43450;BME280;29041;42.266;23.110;2022-08-19T02:51:27;95537.41;;;25.01;49.40
43450;BME280;29041;42.266;23.110;2022-08-19T02:54:15;95539.31;;;24.61;50.40
43450;BME280;29041;42.266;23.110;2022-08-19T02:57:03;95547.22;;;24.35;50.75
43450;BME280;29041;42.266;23.110;2022-08-19T02:59:50;95544.03;;;24.60;50.16
43450;BME280;29041;42.266;23.110;2022-08-19T03:02:37;95541.19;;;24.67;49.92
43450;BME280;29041;42.266;23.110;2022-08-19T03:05:26;95535.31;;;25.09;48.91
43450;BME280;29041;42.266;23.110;2022-08-19T03:08:14;95543.25;;;25.03;48.79
43450;BME280;29041;42.266;23.110;2022-08-19T03:11:01;95552.41;;;25.57;47.70
43450;BME280;29041;42.266;23.110;2022-08-19T03:13:48;95536.00;;;24.93;49.00
43450;BME280;29041;42.266;23.110;2022-08-19T03:16:43;95547.19;;;24.59;49.97
43450;BME280;29041;42.266;23.110;2022-08-19T03:19:31;95550.50;;;25.14;48.21
43450;BME280;29041;42.266;23.110;2022-08-19T03:22:19;95554.16;;;24.39;50.01
43450;BME280;29041;42.266;23.110;2022-08-19T03:25:07;95560.81;;;24.18;50.84
43450;BME280;29041;42.266;23.110;2022-08-19T03:27:54;95555.47;;;24.31;50.46
43450;BME280;29041;42.266;23.110;2022-08-19T03:30:44;95560.94;;;24.35;50.37
43450;BME280;29041;42.266;23.110;2022-08-19T03:33:41;95555.59;;;24.00;51.01
43450;BME280;29041;42.266;23.110;2022-08-19T03:36:28;95560.94;;;24.35;50.16
43450;BME280;29041;42.266;23.110;2022-08-19T03:39:17;95562.16;;;24.06;51.07
43450;BME280;29041;42.266;23.110;2022-08-19T03:42:05;95571.72;;;23.95;51.86
43450;BME280;29041;42.266;23.110;2022-08-19T03:44:53;95567.75;;;24.47;50.51
43450;BME280;29041;42.266;23.110;2022-08-19T03:47:40;95578.75;;;22.99;54.28
43450;BME280;29041;42.266;23.110;2022-08-19T03:50:27;95584.88;;;23.49;53.17
43450;BME280;29041;42.266;23.110;2022-08-19T03:53:15;95584.88;;;23.76;52.63
43450;BME280;29041;42.266;23.110;2022-08-19T03:56:04;95585.63;;;24.35;51.09
43450;BME280;29041;42.266;23.110;2022-08-19T03:58:51;95583.22;;;24.61;50.34
43450;BME280;29041;42.266;23.110;2022-08-19T04:01:39;95587.41;;;24.45;50.78
43450;BME280;29041;42.266;23.110;2022-08-19T04:04:27;95595.06;;;24.06;51.65
43450;BME280;29041;42.266;23.110;2022-08-19T04:07:15;95593.22;;;24.23;51.23
43450;BME280;29041;42.266;23.110;2022-08-19T04:10:04;95596.78;;;23.97;51.67
43450;BME280;29041;42.266;23.110;2022-08-19T04:12:53;95589.16;;;24.83;49.56
43450;BME280;29041;42.266;23.110;2022-08-19T04:15:41;95591.81;;;24.39;50.81
43450;BME280;29041;42.266;23.110;2022-08-19T04:18:28;95586.19;;;25.14;48.64
43450;BME280;29041;42.266;23.110;2022-08-19T04:21:19;95585.19;;;24.60;50.18
43450;BME280;29041;42.266;23.110;2022-08-19T04:24:09;95593.91;;;24.55;50.30
43450;BME280;29041;42.266;23.110;2022-08-19T04:26:59;95591.97;;;24.79;49.58
43450;BME280;29041;42.266;23.110;2022-08-19T04:29:48;95590.63;;;24.64;49.99
43450;BME280;29041;42.266;23.110;2022-08-19T04:32:35;95600.59;;;24.78;49.71
43450;BME280;29041;42.266;23.110;2022-08-19T04:35:22;95599.63;;;24.40;50.41
43450;BME280;29041;42.266;23.110;2022-08-19T04:38:10;95611.19;;;24.99;49.18
43450;BME280;29041;42.266;23.110;2022-08-19T04:40:57;95613.00;;;24.38;50.45
43450;BME280;29041;42.266;23.110;2022-08-19T04:44:04;95621.28;;;23.07;53.63
43450;BME280;29041;42.266;23.110;2022-08-19T04:46:53;95614.59;;;25.07;48.86
43450;BME280;29041;42.266;23.110;2022-08-19T04:49:41;95611.72;;;25.34;47.70
43450;BME280;29041;42.266;23.110;2022-08-19T04:52:28;95611.31;;;25.56;47.43
43450;BME280;29041;42.266;23.110;2022-08-19T04:55:17;95614.19;;;24.85;49.21
43450;BME280;29041;42.266;23.110;2022-08-19T04:58:05;95616.41;;;24.94;48.81
43450;BME280;29041;42.266;23.110;2022-08-19T05:00:52;95621.19;;;24.90;48.97
43450;BME280;29041;42.266;23.110;2022-08-19T05:03:41;95615.50;;;24.77;49.90
43450;BME280;29041;42.266;23.110;2022-08-19T05:06:28;95614.88;;;24.69;50.28
43450;BME280;29041;42.266;23.110;2022-08-19T05:09:19;95623.38;;;25.62;47.66
43450;BME280;29041;42.266;23.110;2022-08-19T05:12:12;95613.63;;;25.78;47.08
43450;BME280;29041;42.266;23.110;2022-08-19T05:15:00;95621.03;;;25.61;47.82
43450;BME280;29041;42.266;23.110;2022-08-19T05:17:48;95618.63;;;26.36;45.67
43450;BME280;29041;42.266;23.110;2022-08-19T05:20:50;95608.75;;;26.22;46.18
43450;BME280;29041;42.266;23.110;2022-08-19T05:23:55;95625.06;;;26.13;46.92
43450;BME280;29041;42.266;23.110;2022-08-19T05:26:45;95621.84;;;25.98;47.79
43450;BME280;29041;42.266;23.110;2022-08-19T05:29:33;95616.56;;;26.24;46.28
43450;BME280;29041;42.266;23.110;2022-08-19T05:32:21;95613.31;;;25.92;47.95
43450;BME280;29041;42.266;23.110;2022-08-19T05:35:09;95604.44;;;26.54;47.07
43450;BME280;29041;42.266;23.110;2022-08-19T05:37:58;95606.75;;;26.72;45.23
43450;BME280;29041;42.266;23.110;2022-08-19T05:40:46;95603.91;;;27.22;44.35
43450;BME280;29041;42.266;23.110;2022-08-19T05:43:35;95596.94;;;26.88;45.27
43450;BME280;29041;42.266;23.110;2022-08-19T05:46:22;95603.41;;;27.82;43.83
43450;BME280;29041;42.266;23.110;2022-08-19T05:49:10;95600.19;;;27.29;43.97
43450;BME280;29041;42.266;23.110;2022-08-19T05:51:57;95599.09;;;27.81;43.13
43450;BME280;29041;42.266;23.110;2022-08-19T05:54:46;95597.09;;;27.69;43.76
43450;BME280;29041;42.266;23.110;2022-08-19T05:57:36;95604.63;;;27.39;43.98
43450;BME280;29041;42.266;23.110;2022-08-19T06:00:23;95592.00;;;27.54;44.02
43450;BME280;29041;42.266;23.110;2022-08-19T06:03:11;95592.31;;;27.44;44.68
43450;BME280;29041;42.266;23.110;2022-08-19T06:05:58;95600.63;;;27.82;44.22
43450;BME280;29041;42.266;23.110;2022-08-19T06:08:46;95595.97;;;28.83;41.43
43450;BME280;29041;42.266;23.110;2022-08-19T06:11:39;95609.31;;;29.19;40.83
43450;BME280;29041;42.266;23.110;2022-08-19T06:14:28;95606.91;;;29.08;40.66
43450;BME280;29041;42.266;23.110;2022-08-19T06:17:16;95606.84;;;28.51;41.68
43450;BME280;29041;42.266;23.110;2022-08-19T06:20:04;95603.13;;;28.32;41.95
43450;BME280;29041;42.266;23.110;2022-08-19T06:22:51;95596.97;;;28.76;40.78
43450;BME280;29041;42.266;23.110;2022-08-19T06:25:39;95602.16;;;29.44;39.29
43450;BME280;29041;42.266;23.110;2022-08-19T06:28:28;95601.00;;;29.32;39.54
43450;BME280;29041;42.266;23.110;2022-08-19T06:31:17;95606.22;;;28.08;42.52
43450;BME280;29041;42.266;23.110;2022-08-19T06:34:05;95603.69;;;28.88;41.68
43450;BME280;29041;42.266;23.110;2022-08-19T06:36:53;95611.31;;;28.96;39.91
43450;BME280;29041;42.266;23.110;2022-08-19T06:39:42;95596.38;;;28.94;40.15
43450;BME280;29041;42.266;23.110;2022-08-19T06:42:30;95591.91;;;28.74;40.96
43450;BME280;29041;42.266;23.110;2022-08-19T06:45:18;95586.97;;;29.80;38.47
43450;BME280;29041;42.266;23.110;2022-08-19T06:48:06;95588.94;;;29.70;39.44
43450;BME280;29041;42.266;23.110;2022-08-19T06:50:53;95583.22;;;29.65;38.69
43450;BME280;29041;42.266;23.110;2022-08-19T06:53:41;95585.81;;;29.90;38.73
43450;BME280;29041;42.266;23.110;2022-08-19T06:56:32;95584.59;;;30.32;37.30
43450;BME280;29041;42.266;23.110;2022-08-19T06:59:21;95597.75;;;30.50;38.10
43450;BME280;29041;42.266;23.110;2022-08-19T07:02:19;95587.63;;;30.57;37.54
43450;BME280;29041;42.266;23.110;2022-08-19T07:05:07;95593.53;;;30.36;38.02
43450;BME280;29041;42.266;23.110;2022-08-19T07:07:54;95599.78;;;30.68;38.04
43450;BME280;29041;42.266;23.110;2022-08-19T07:10:45;95599.91;;;30.56;38.42
43450;BME280;29041;42.266;23.110;2022-08-19T07:13:32;95584.44;;;31.14;36.66
43450;BME280;29041;42.266;23.110;2022-08-19T07:16:22;95592.97;;;29.79;39.62
43450;BME280;29041;42.266;23.110;2022-08-19T07:19:11;95595.78;;;30.69;36.90
43450;BME280;29041;42.266;23.110;2022-08-19T07:21:58;95594.50;;;32.58;34.10
43450;BME280;29041;42.266;23.110;2022-08-19T07:24:47;95585.41;;;34.98;30.04
43450;BME280;29041;42.266;23.110;2022-08-19T07:27:35;95583.88;;;36.34;28.04
43450;BME280;29041;42.266;23.110;2022-08-19T07:30:22;95568.84;;;37.58;26.39
43450;BME280;29041;42.266;23.110;2022-08-19T07:33:09;95574.66;;;40.54;22.13
43450;BME280;29041;42.266;23.110;2022-08-19T07:35:58;95573.13;;;40.53;22.38
43450;BME280;29041;42.266;23.110;2022-08-19T07:38:48;95566.19;;;40.60;22.15
43450;BME280;29041;42.266;23.110;2022-08-19T07:41:36;95573.75;;;39.43;23.09
43450;BME280;29041;42.266;23.110;2022-08-19T07:44:23;95585.13;;;37.76;24.89
43450;BME280;29041;42.266;23.110;2022-08-19T07:47:10;95579.16;;;40.88;22.23
43450;BME280;29041;42.266;23.110;2022-08-19T07:50:01;95577.81;;;39.48;22.97
43450;BME280;29041;42.266;23.110;2022-08-19T07:52:51;95576.50;;;37.74;25.42
43450;BME280;29041;42.266;23.110;2022-08-19T07:55:38;95589.75;;;37.97;24.99
43450;BME280;29041;42.266;23.110;2022-08-19T07:58:25;95580.06;;;37.81;25.09
43450;BME280;29041;42.266;23.110;2022-08-19T08:01:15;95585.59;;;39.30;24.29
43450;BME280;29041;42.266;23.110;2022-08-19T08:04:03;95576.16;;;37.27;25.90
43450;BME280;29041;42.266;23.110;2022-08-19T08:07:08;95580.94;;;37.09;25.78
43450;BME280;29041;42.266;23.110;2022-08-19T08:10:14;95549.75;;;37.68;24.90
43450;BME280;29041;42.266;23.110;2022-08-19T08:13:02;95574.22;;;38.07;24.81
43450;BME280;29041;42.266;23.110;2022-08-19T08:15:51;95575.28;;;36.43;27.23
43450;BME280;29041;42.266;23.110;2022-08-19T08:18:38;95566.03;;;37.69;25.89
43450;BME280;29041;42.266;23.110;2022-08-19T08:21:27;95570.59;;;36.66;26.63
43450;BME280;29041;42.266;23.110;2022-08-19T08:24:16;95563.75;;;36.30;28.64
43450;BME280;29041;42.266;23.110;2022-08-19T08:27:05;95558.06;;;37.17;26.41
43450;BME280;29041;42.266;23.110;2022-08-19T08:29:52;95545.47;;;38.88;24.58
43450;BME280;29041;42.266;23.110;2022-08-19T08:32:39;95557.91;;;38.11;24.88
43450;BME280;29041;42.266;23.110;2022-08-19T08:35:26;95560.69;;;38.39;25.17
43450;BME280;29041;42.266;23.110;2022-08-19T08:38:13;95552.72;;;36.09;28.81
43450;BME280;29041;42.266;23.110;2022-08-19T08:41:05;95550.66;;;37.02;26.71
43450;BME280;29041;42.266;23.110;2022-08-19T08:43:57;95541.84;;;37.38;26.49
43450;BME280;29041;42.266;23.110;2022-08-19T08:46:47;95540.00;;;37.06;26.46
43450;BME280;29041;42.266;23.110;2022-08-19T08:49:41;95536.66;;;36.96;26.38
43450;BME280;29041;42.266;23.110;2022-08-19T08:52:33;95533.97;;;37.47;25.83
43450;BME280;29041;42.266;23.110;2022-08-19T08:55:24;95523.06;;;36.66;26.58
43450;BME280;29041;42.266;23.110;2022-08-19T08:58:15;95530.63;;;36.60;27.44
43450;BME280;29041;42.266;23.110;2022-08-19T09:01:06;95526.88;;;36.69;27.82
43450;BME280;29041;42.266;23.110;2022-08-19T09:03:53;95530.16;;;36.18;28.36
43450;BME280;29041;42.266;23.110;2022-08-19T09:06:49;95518.19;;;37.44;25.34
43450;BME280;29041;42.266;23.110;2022-08-19T09:09:40;95524.31;;;37.83;25.47
43450;BME280;29041;42.266;23.110;2022-08-19T09:12:35;95514.38;;;37.82;25.92
43450;BME280;29041;42.266;23.110;2022-08-19T09:15:28;95512.59;;;37.44;25.68
43450;BME280;29041;42.266;23.110;2022-08-19T09:18:18;95512.13;;;36.68;27.48
43450;BME280;29041;42.266;23.110;2022-08-19T09:21:05;95521.94;;;36.03;27.93
43450;BME280;29041;42.266;23.110;2022-08-19T09:23:53;95506.44;;;38.14;25.87
43450;BME280;29041;42.266;23.110;2022-08-19T09:26:41;95505.41;;;37.15;26.07
43450;BME280;29041;42.266;23.110;2022-08-19T09:29:29;95499.84;;;37.77;26.78
43450;BME280;29041;42.266;23.110;2022-08-19T09:32:16;95489.91;;;38.86;24.54
43450;BME280;29041;42.266;23.110;2022-08-19T09:35:07;95496.16;;;38.51;24.70
43450;BME280;29041;42.266;23.110;2022-08-19T09:37:55;95489.25;;;38.52;24.73
43450;BME280;29041;42.266;23.110;2022-08-19T09:40:42;95471.34;;;38.66;24.56
43450;BME280;29041;42.266;23.110;2022-08-19T09:43:30;95476.53;;;39.04;25.08
43450;BME280;29041;42.266;23.110;2022-08-19T09:46:17;95467.41;;;38.98;23.92
43450;BME280;29041;42.266;23.110;2022-08-19T09:49:06;95475.41;;;39.85;23.33
43450;BME280;29041;42.266;23.110;2022-08-19T09:51:55;95465.03;;;39.08;24.07
43450;BME280;29041;42.266;23.110;2022-08-19T09:54:43;95453.00;;;39.13;24.04
43450;BME280;29041;42.266;23.110;2022-08-19T09:57:31;95453.81;;;39.08;24.31
43450;BME280;29041;42.266;23.110;2022-08-19T10:00:18;95448.09;;;38.83;24.89
43450;BME280;29041;42.266;23.110;2022-08-19T10:03:06;95452.06;;;38.99;24.36
43450;BME280;29041;42.266;23.110;2022-08-19T10:05:55;95446.69;;;39.01;24.51
43450;BME280;29041;42.266;23.110;2022-08-19T10:08:45;95441.88;;;39.62;23.65
43450;BME280;29041;42.266;23.110;2022-08-19T10:11:33;95443.97;;;40.55;22.81
43450;BME280;29041;42.266;23.110;2022-08-19T10:14:23;95428.78;;;39.46;23.16
43450;BME280;29041;42.266;23.110;2022-08-19T10:17:10;95430.94;;;38.92;23.70
43450;BME280;29041;42.266;23.110;2022-08-19T10:19:57;95430.84;;;39.40;23.75
43450;BME280;29041;42.266;23.110;2022-08-19T10:22:44;95424.00;;;38.57;23.77
43450;BME280;29041;42.266;23.110;2022-08-19T10:25:33;95426.94;;;39.54;23.83
43450;BME280;29041;42.266;23.110;2022-08-19T10:28:20;95431.03;;;38.75;23.97
43450;BME280;29041;42.266;23.110;2022-08-19T10:31:10;95425.41;;;39.53;22.62
43450;BME280;29041;42.266;23.110;2022-08-19T10:33:57;95416.38;;;40.16;22.39
43450;BME280;29041;42.266;23.110;2022-08-19T10:36:45;95418.28;;;40.02;22.49
43450;BME280;29041;42.266;23.110;2022-08-19T10:39:33;95412.91;;;40.67;21.92
43450;BME280;29041;42.266;23.110;2022-08-19T10:42:22;95407.41;;;40.55;23.05
43450;BME280;29041;42.266;23.110;2022-08-19T10:45:10;95407.50;;;40.69;22.37
43450;BME280;29041;42.266;23.110;2022-08-19T10:47:57;95420.19;;;39.69;23.02
43450;BME280;29041;42.266;23.110;2022-08-19T10:50:44;95404.53;;;39.73;22.27
43450;BME280;29041;42.266;23.110;2022-08-19T10:53:49;95401.22;;;40.19;22.04
43450;BME280;29041;42.266;23.110;2022-08-19T10:56:36;95399.28;;;40.08;23.61
43450;BME280;29041;42.266;23.110;2022-08-19T10:59:39;95401.59;;;40.09;21.53
43450;BME280;29041;42.266;23.110;2022-08-19T11:02:26;95394.94;;;41.08;20.61
43450;BME280;29041;42.266;23.110;2022-08-19T11:05:14;95382.97;;;39.57;20.81
43450;BME280;29041;42.266;23.110;2022-08-19T11:08:02;95380.00;;;40.62;20.27
43450;BME280;29041;42.266;23.110;2022-08-19T11:10:51;95383.78;;;41.48;19.31
43450;BME280;29041;42.266;23.110;2022-08-19T11:13:43;95377.28;;;40.88;21.30
43450;BME280;29041;42.266;23.110;2022-08-19T11:16:33;95378.16;;;41.62;19.76
43450;BME280;29041;42.266;23.110;2022-08-19T11:19:20;95370.59;;;40.91;18.73
43450;BME280;29041;42.266;23.110;2022-08-19T11:22:09;95373.19;;;42.35;17.87
43450;BME280;29041;42.266;23.110;2022-08-19T11:24:56;95378.53;;;41.26;19.27
43450;BME280;29041;42.266;23.110;2022-08-19T11:27:43;95376.41;;;41.45;18.57
43450;BME280;29041;42.266;23.110;2022-08-19T11:30:32;95376.25;;;41.97;18.00
43450;BME280;29041;42.266;23.110;2022-08-19T11:33:21;95373.44;;;40.72;19.04
43450;BME280;29041;42.266;23.110;2022-08-19T11:36:09;95364.38;;;40.41;18.86
43450;BME280;29041;42.266;23.110;2022-08-19T11:38:57;95353.84;;;41.32;18.24
43450;BME280;29041;42.266;23.110;2022-08-19T11:41:44;95361.50;;;40.85;19.33
43450;BME280;29041;42.266;23.110;2022-08-19T11:44:31;95356.41;;;40.84;19.12
43450;BME280;29041;42.266;23.110;2022-08-19T11:47:19;95347.09;;;40.89;19.93
43450;BME280;29041;42.266;23.110;2022-08-19T11:50:08;95349.88;;;41.54;19.41
43450;BME280;29041;42.266;23.110;2022-08-19T11:52:56;95344.06;;;40.87;20.01
43450;BME280;29041;42.266;23.110;2022-08-19T11:55:45;95340.69;;;41.94;18.85
43450;BME280;29041;42.266;23.110;2022-08-19T11:58:32;95342.69;;;41.26;19.36
43450;BME280;29041;42.266;23.110;2022-08-19T12:01:22;95341.81;;;40.99;20.04
43450;BME280;29041;42.266;23.110;2022-08-19T12:04:10;95334.78;;;41.25;18.98
43450;BME280;29041;42.266;23.110;2022-08-19T12:06:59;95336.78;;;41.83;18.79
43450;BME280;29041;42.266;23.110;2022-08-19T12:09:47;95329.72;;;40.52;18.37
43450;BME280;29041;42.266;23.110;2022-08-19T12:12:34;95331.19;;;41.24;19.38
43450;BME280;29041;42.266;23.110;2022-08-19T12:15:26;95323.84;;;41.21;18.04
43450;BME280;29041;42.266;23.110;2022-08-19T12:18:14;95327.59;;;41.10;18.42
43450;BME280;29041;42.266;23.110;2022-08-19T12:21:01;95315.84;;;41.92;18.80
43450;BME280;29041;42.266;23.110;2022-08-19T12:23:50;95308.16;;;41.79;17.76
43450;BME280;29041;42.266;23.110;2022-08-19T12:26:38;95300.34;;;41.72;18.33
43450;BME280;29041;42.266;23.110;2022-08-19T12:29:26;95300.56;;;40.88;19.50
43450;BME280;29041;42.266;23.110;2022-08-19T12:32:14;95298.25;;;40.21;19.45
43450;BME280;29041;42.266;23.110;2022-08-19T12:35:02;95301.31;;;39.98;19.90
43450;BME280;29041;42.266;23.110;2022-08-19T12:37:50;95285.78;;;41.01;19.19
43450;BME280;29041;42.266;23.110;2022-08-19T12:40:39;95271.50;;;41.93;18.77
43450;BME280;29041;42.266;23.110;2022-08-19T12:43:26;95284.56;;;41.69;18.68
43450;BME280;29041;42.266;23.110;2022-08-19T12:46:16;95287.75;;;41.06;18.42
43450;BME280;29041;42.266;23.110;2022-08-19T12:49:04;95290.75;;;42.29;18.55
43450;BME280;29041;42.266;23.110;2022-08-19T12:51:51;95278.16;;;41.68;18.30
43450;BME280;29041;42.266;23.110;2022-08-19T12:54:38;95274.03;;;41.43;18.35
43450;BME280;29041;42.266;23.110;2022-08-19T12:57:28;95276.44;;;40.92;19.03
43450;BME280;29041;42.266;23.110;2022-08-19T13:00:20;95270.59;;;41.50;18.44
43450;BME280;29041;42.266;23.110;2022-08-19T13:03:08;95268.28;;;42.23;19.14
43450;BME280;29041;42.266;23.110;2022-08-19T13:05:55;95266.31;;;41.03;18.56
43450;BME280;29041;42.266;23.110;2022-08-19T13:08:42;95270.34;;;40.75;19.72
43450;BME280;29041;42.266;23.110;2022-08-19T13:11:29;95266.28;;;42.10;18.09
43450;BME280;29041;42.266;23.110;2022-08-19T13:14:19;95260.41;;;42.22;18.55
43450;BME280;29041;42.266;23.110;2022-08-19T13:17:06;95259.22;;;40.50;20.49
43450;BME280;29041;42.266;23.110;2022-08-19T13:19:54;95257.34;;;41.18;20.04
43450;BME280;29041;42.266;23.110;2022-08-19T13:22:41;95259.31;;;40.90;19.42
43450;BME280;29041;42.266;23.110;2022-08-19T13:25:30;95257.34;;;40.72;19.58
43450;BME280;29041;42.266;23.110;2022-08-19T13:28:18;95245.50;;;41.86;18.25
43450;BME280;29041;42.266;23.110;2022-08-19T13:31:06;95249.13;;;42.22;18.09
43450;BME280;29041;42.266;23.110;2022-08-19T13:34:11;95252.16;;;40.76;18.22
43450;BME280;29041;42.266;23.110;2022-08-19T13:36:59;95253.22;;;41.05;19.36
43450;BME280;29041;42.266;23.110;2022-08-19T13:39:48;95249.75;;;40.67;18.38
43450;BME280;29041;42.266;23.110;2022-08-19T13:42:35;95255.84;;;40.84;19.01
43450;BME280;29041;42.266;23.110;2022-08-19T13:45:24;95240.94;;;41.97;18.43
43450;BME280;29041;42.266;23.110;2022-08-19T13:48:13;95237.22;;;41.54;18.26
43450;BME280;29041;42.266;23.110;2022-08-19T13:51:04;95242.34;;;42.04;17.45
43450;BME280;29041;42.266;23.110;2022-08-19T13:53:52;95234.72;;;41.10;19.92
43450;BME280;29041;42.266;23.110;2022-08-19T13:56:41;95236.84;;;39.87;18.97
43450;BME280;29041;42.266;23.110;2022-08-19T13:59:29;95223.53;;;40.91;18.62
43450;BME280;29041;42.266;23.110;2022-08-19T14:02:16;95229.59;;;41.76;17.65
43450;BME280;29041;42.266;23.110;2022-08-19T14:05:08;95230.38;;;41.49;18.25
43450;BME280;29041;42.266;23.110;2022-08-19T14:07:55;95224.59;;;42.16;17.51
43450;BME280;29041;42.266;23.110;2022-08-19T14:10:43;95231.81;;;41.29;17.19
43450;BME280;29041;42.266;23.110;2022-08-19T14:13:30;95229.47;;;40.87;17.92
43450;BME280;29041;42.266;23.110;2022-08-19T14:16:19;95218.31;;;40.95;17.57
43450;BME280;29041;42.266;23.110;2022-08-19T14:19:07;95219.78;;;41.15;17.32
43450;BME280;29041;42.266;23.110;2022-08-19T14:21:58;95219.44;;;41.19;17.53
43450;BME280;29041;42.266;23.110;2022-08-19T14:24:45;95210.56;;;41.55;16.97
43450;BME280;29041;42.266;23.110;2022-08-19T14:27:33;95214.44;;;41.38;16.88
43450;BME280;29041;42.266;23.110;2022-08-19T14:30:22;95214.34;;;41.04;16.89
43450;BME280;29041;42.266;23.110;2022-08-19T14:33:11;95213.38;;;41.15;16.80
43450;BME280;29041;42.266;23.110;2022-08-19T14:35:59;95198.63;;;40.95;17.52
43450;BME280;29041;42.266;23.110;2022-08-19T14:38:48;95195.19;;;41.29;16.77
43450;BME280;29041;42.266;23.110;2022-08-19T14:41:36;95195.50;;;41.52;16.44